Time;durP1;ratioP1;P1;durP2;ratioP2;P2;SDS_P1;SDS_P2;PMS_P1;PMS_P2;Temp;Humidity;BMP_temperature;BMP_pressure;BME280_temperature;BME280_humidity;BME280_pressure;Samples;Min_cycle;Max_cycle;Signal;HPM_P1;HPM_P2
2022/05/10 00:01:19;;;;;;;5.70;4.60;;;;;;;;;;5068081;28;20306;-72
2022/05/10 00:03:47;;;;;;;5.77;5.07;;;;;;;;;;5071192;28;20232;-71
2022/05/10 00:06:16;;;;;;;4.90;4.40;;;;;;;;;;5066134;28;20254;-71
2022/05/10 00:08:44;;;;;;;6.00;5.07;;;;;;;;;;5063233;28;20290;-71
2022/05/10 00:11:12;;;;;;;5.10;4.63;;;;;;;;;;5069756;28;20238;-70
2022/05/10 00:13:41;;;;;;;5.00;4.60;;;;;;;;;;5068473;28;20696;-72
2022/05/10 00:16:09;;;;;;;5.50;4.63;;;;;;;;;;5066627;28;20287;-72
2022/05/10 00:18:38;;;;;;;5.70;5.20;;;;;;;;;;5063850;28;20203;-72
2022/05/10 00:21:06;;;;;;;5.63;4.30;;;;;;;;;;5065212;28;20273;-72
2022/05/10 00:23:36;;;;;;;5.63;5.13;;;;;;;;;;5064799;28;20286;-72
2022/05/10 00:26:04;;;;;;;5.30;4.80;;;;;;;;;;5065982;28;20653;-72
2022/05/10 00:28:32;;;;;;;6.33;5.20;;;;;;;;;;5067348;28;20195;-71
2022/05/10 00:31:00;;;;;;;6.30;4.67;;;;;;;;;;5065103;28;20227;-71
2022/05/10 00:33:29;;;;;;;6.30;5.07;;;;;;;;;;5070849;28;20198;-70
2022/05/10 00:35:58;;;;;;;6.57;5.47;;;;;;;;;;5066686;28;20249;-70
2022/05/10 00:38:36;;;;;;;6.53;5.33;;;;;;;;;;5066841;28;20539;-70
2022/05/10 00:41:09;;;;;;;8.37;6.10;;;;;;;;;;5058197;28;20305;-70
2022/05/10 00:43:39;;;;;;;6.07;5.47;;;;;;;;;;5068603;28;20675;-69
2022/05/10 00:46:08;;;;;;;7.00;6.20;;;;;;;;;;5060655;28;20680;-69
2022/05/10 00:48:41;;;;;;;6.67;5.70;;;;;;;;;;5068529;28;20226;-69
2022/05/10 00:51:12;;;;;;;7.53;5.90;;;;;;;;;;5069058;28;20237;-69
2022/05/10 00:53:48;;;;;;;6.90;5.40;;;;;;;;;;5068476;28;20229;-70
2022/05/10 00:56:22;;;;;;;7.50;5.40;;;;;;;;;;5061674;28;20250;-70
2022/05/10 00:58:54;;;;;;;6.53;5.60;;;;;;;;;;5065450;28;20233;-70
2022/05/10 01:01:26;;;;;;;6.07;5.47;;;;;;;;;;5067915;28;20222;-69
2022/05/10 01:03:56;;;;;;;6.90;5.33;;;;;;;;;;5065383;28;20239;-70
2022/05/10 01:06:26;;;;;;;5.97;4.90;;;;;;;;;;5063852;28;20247;-70
2022/05/10 01:08:59;;;;;;;5.53;5.03;;;;;;;;;;5063942;28;20227;-70
2022/05/10 01:11:30;;;;;;;5.67;5.17;;;;;;;;;;5062456;28;20230;-70
2022/05/10 01:14:01;;;;;;;6.20;5.57;;;;;;;;;;5061767;28;20230;-70
2022/05/10 01:16:29;;;;;;;5.53;4.97;;;;;;;;;;5063063;28;20283;-69
2022/05/10 01:18:57;;;;;;;6.07;5.47;;;;;;;;;;5065920;28;20198;-70
2022/05/10 01:21:32;;;;;;;7.77;5.60;;;;;;;;;;5076317;28;20249;-70
2022/05/10 01:24:11;;;;;;;5.87;5.37;;;;;;;;;;5060439;28;20233;-69
2022/05/10 01:26:47;;;;;;;9.50;6.60;;;;;;;;;;5060418;28;20257;-72
2022/05/10 01:29:20;;;;;;;8.67;5.77;;;;;;;;;;5067895;28;20635;-71
2022/05/10 01:33:29;;;;;;;9.30;6.30;;;;;;;;;;5065697;28;20262;-72
2022/05/10 01:34:38;;;;;;;8.03;5.43;;;;;;;;;;5062788;28;20195;-72
2022/05/10 01:37:08;;;;;;;7.33;5.97;;;;;;;;;;5069701;28;20261;-71
2022/05/10 01:39:40;;;;;;;6.97;6.00;;;;;;;;;;5076637;28;20761;-72
2022/05/10 01:42:11;;;;;;;5.80;5.20;;;;;;;;;;5071554;28;20309;-71
2022/05/10 01:44:43;;;;;;;6.00;5.03;;;;;;;;;;5067497;28;20285;-71
2022/05/10 01:47:14;;;;;;;5.53;5.03;;;;;;;;;;5065498;28;20254;-72
2022/05/10 01:49:44;;;;;;;6.43;5.17;;;;;;;;;;5070503;28;20242;-72
2022/05/10 01:52:16;;;;;;;6.07;5.17;;;;;;;;;;5063561;28;20286;-71
2022/05/10 01:55:17;;;;;;;6.27;5.20;;;;;;;;;;5077460;28;20252;-72
2022/05/10 01:57:45;;;;;;;6.83;5.10;;;;;;;;;;5029166;28;20286;-72
2022/05/10 02:00:16;;;;;;;6.73;5.50;;;;;;;;;;5027295;28;20295;-71
2022/05/10 02:02:45;;;;;;;6.53;5.30;;;;;;;;;;5048568;28;20305;-72
2022/05/10 02:05:17;;;;;;;7.40;5.50;;;;;;;;;;5072312;28;20201;-71
2022/05/10 02:07:46;;;;;;;9.93;5.90;;;;;;;;;;5074882;28;20289;-72
2022/05/10 02:10:18;;;;;;;5.90;5.30;;;;;;;;;;5071747;28;20652;-72
2022/05/10 02:12:50;;;;;;;9.63;5.67;;;;;;;;;;5064199;28;20543;-71
2022/05/10 02:15:23;;;;;;;6.63;5.60;;;;;;;;;;5061815;28;20203;-72
2022/05/10 02:17:52;;;;;;;6.87;5.20;;;;;;;;;;5070904;28;20564;-72
2022/05/10 02:20:22;;;;;;;5.73;5.17;;;;;;;;;;5070296;28;20206;-71
2022/05/10 02:22:53;;;;;;;6.93;5.23;;;;;;;;;;5066473;28;20306;-71
2022/05/10 02:25:24;;;;;;;7.10;5.50;;;;;;;;;;5072601;28;20241;-72
2022/05/10 02:27:53;;;;;;;6.10;5.43;;;;;;;;;;5067538;28;20252;-71
2022/05/10 02:30:23;;;;;;;6.03;5.43;;;;;;;;;;5067282;28;20248;-72
2022/05/10 02:33:08;;;;;;;6.73;5.87;;;;;;;;;;5063208;28;20708;-72
2022/05/10 02:35:41;;;;;;;7.97;6.83;;;;;;;;;;5068919;28;20223;-72
2022/05/10 02:38:10;;;;;;;7.00;5.87;;;;;;;;;;5064652;28;20218;-73
2022/05/10 02:40:41;;;;;;;9.17;5.90;;;;;;;;;;5061833;28;20227;-71
2022/05/10 02:43:11;;;;;;;6.77;6.10;;;;;;;;;;5067123;28;20233;-71
2022/05/10 02:45:42;;;;;;;8.27;5.60;;;;;;;;;;5069698;28;20702;-71
2022/05/10 02:48:14;;;;;;;6.50;5.63;;;;;;;;;;5069247;28;20205;-71
2022/05/10 02:50:42;;;;;;;6.43;5.83;;;;;;;;;;5066139;28;20229;-72
2022/05/10 02:53:10;;;;;;;8.50;6.80;;;;;;;;;;5072407;28;20203;-71
2022/05/10 02:55:41;;;;;;;8.70;5.83;;;;;;;;;;5063317;28;20254;-73
2022/05/10 02:58:12;;;;;;;6.00;5.50;;;;;;;;;;5073249;28;20226;-73
2022/05/10 03:00:41;;;;;;;8.00;5.93;;;;;;;;;;5068316;28;20230;-73
2022/05/10 03:03:14;;;;;;;6.83;5.50;;;;;;;;;;5063018;28;20269;-73
2022/05/10 03:05:42;;;;;;;6.93;5.87;;;;;;;;;;5069362;28;20304;-73
2022/05/10 03:08:10;;;;;;;8.07;5.50;;;;;;;;;;5064470;28;20237;-73
2022/05/10 03:10:38;;;;;;;7.13;6.43;;;;;;;;;;5069205;28;20256;-72
2022/05/10 03:13:06;;;;;;;6.43;5.80;;;;;;;;;;5065409;28;20634;-73
2022/05/10 03:15:34;;;;;;;6.77;5.73;;;;;;;;;;5063860;28;20258;-70
2022/05/10 03:18:04;;;;;;;6.77;6.17;;;;;;;;;;5066555;28;20231;-70
2022/05/10 03:20:32;;;;;;;7.33;6.63;;;;;;;;;;5063285;28;20700;-72
2022/05/10 03:23:00;;;;;;;6.33;5.77;;;;;;;;;;5060029;28;20285;-69
2022/05/10 03:25:30;;;;;;;7.00;6.27;;;;;;;;;;5063965;28;20222;-70
2022/05/10 03:28:00;;;;;;;9.63;6.63;;;;;;;;;;5061417;28;20207;-71
2022/05/10 03:30:28;;;;;;;9.47;5.90;;;;;;;;;;5069637;28;20202;-71
2022/05/10 03:32:56;;;;;;;6.70;6.10;;;;;;;;;;5076277;28;20660;-71
2022/05/10 03:35:25;;;;;;;9.07;6.73;;;;;;;;;;5060383;28;20255;-71
2022/05/10 03:37:53;;;;;;;9.20;6.53;;;;;;;;;;5063285;28;20260;-72
2022/05/10 03:40:21;;;;;;;7.97;6.03;;;;;;;;;;5061121;28;20226;-73
2022/05/10 03:42:51;;;;;;;8.53;6.57;;;;;;;;;;5065032;28;20288;-71
2022/05/10 03:45:20;;;;;;;8.13;6.57;;;;;;;;;;5062768;28;20203;-70
2022/05/10 03:47:48;;;;;;;9.53;6.60;;;;;;;;;;5068063;28;20690;-72
2022/05/10 03:50:19;;;;;;;8.83;6.87;;;;;;;;;;5064061;28;20231;-71
2022/05/10 03:52:48;;;;;;;9.50;7.20;;;;;;;;;;5069657;28;20191;-70
2022/05/10 03:55:17;;;;;;;11.23;6.10;;;;;;;;;;5065172;28;20230;-70
2022/05/10 03:57:46;;;;;;;7.63;6.43;;;;;;;;;;5062850;28;20543;-71
2022/05/10 04:00:15;;;;;;;9.70;6.90;;;;;;;;;;5066136;28;20289;-71
2022/05/10 04:02:43;;;;;;;8.00;6.70;;;;;;;;;;5064799;28;20226;-71
2022/05/10 04:05:12;;;;;;;11.40;7.27;;;;;;;;;;5062826;28;20198;-71
2022/05/10 04:07:40;;;;;;;8.03;6.33;;;;;;;;;;5057721;28;20248;-68
2022/05/10 04:10:10;;;;;;;7.57;6.50;;;;;;;;;;5061772;28;20571;-70
2022/05/10 04:12:39;;;;;;;8.10;5.90;;;;;;;;;;5065047;28;20195;-70
2022/05/10 04:15:09;;;;;;;8.40;6.60;;;;;;;;;;5061336;28;20703;-71
2022/05/10 04:17:37;;;;;;;12.27;8.20;;;;;;;;;;5073290;28;20255;-71
2022/05/10 04:20:06;;;;;;;11.33;7.63;;;;;;;;;;5067144;28;20199;-67
2022/05/10 04:22:34;;;;;;;10.87;7.77;;;;;;;;;;5061820;28;20224;-71
2022/05/10 04:25:16;;;;;;;11.80;8.33;;;;;;;;;;5066484;28;20288;-70
2022/05/10 04:27:44;;;;;;;11.30;7.67;;;;;;;;;;5068192;28;20259;-69
2022/05/10 04:30:13;;;;;;;10.00;8.03;;;;;;;;;;5064442;28;20234;-67
2022/05/10 04:32:41;;;;;;;11.43;7.43;;;;;;;;;;5064746;28;20199;-68
2022/05/10 04:35:10;;;;;;;14.67;8.37;;;;;;;;;;5065155;28;20248;-66
2022/05/10 04:37:38;;;;;;;11.20;7.40;;;;;;;;;;5065064;28;20233;-68
2022/05/10 04:42:54;;;;;;;9.10;7.90;;;;;;;;;;5062083;28;20227;-69
2022/05/10 04:45:22;;;;;;;12.80;7.33;;;;;;;;;;5065551;28;20246;-69
2022/05/10 04:47:50;;;;;;;15.10;7.77;;;;;;;;;;5067362;28;20201;-70
2022/05/10 04:50:18;;;;;;;10.27;8.00;;;;;;;;;;5064309;28;20700;-70
2022/05/10 04:52:46;;;;;;;9.57;7.20;;;;;;;;;;5072116;28;20213;-67
2022/05/10 04:55:14;;;;;;;11.40;7.53;;;;;;;;;;5063457;28;20202;-66
2022/05/10 04:57:42;;;;;;;12.10;7.47;;;;;;;;;;5066031;28;20206;-67
2022/05/10 05:00:13;;;;;;;9.57;7.63;;;;;;;;;;5065531;28;20608;-66
2022/05/10 05:02:42;;;;;;;9.67;7.57;;;;;;;;;;5068924;28;20231;-66
2022/05/10 05:05:12;;;;;;;9.60;6.80;;;;;;;;;;5068748;28;20265;-66
2022/05/10 05:07:40;;;;;;;10.30;7.37;;;;;;;;;;5069789;28;20217;-66
2022/05/10 05:10:08;;;;;;;8.97;7.00;;;;;;;;;;5066446;28;20263;-66
2022/05/10 05:12:36;;;;;;;11.87;6.63;;;;;;;;;;5066480;28;20201;-66
2022/05/10 05:15:06;;;;;;;12.83;7.10;;;;;;;;;;5059556;28;20205;-66
2022/05/10 05:17:36;;;;;;;8.07;7.10;;;;;;;;;;5061758;28;20199;-66
2022/05/10 05:20:05;;;;;;;10.10;7.63;;;;;;;;;;5069518;28;20293;-66
2022/05/10 05:22:33;;;;;;;11.73;7.93;;;;;;;;;;5068062;28;20205;-66
2022/05/10 05:25:01;;;;;;;9.87;6.67;;;;;;;;;;5066029;28;20780;-68
2022/05/10 05:27:30;;;;;;;8.30;7.07;;;;;;;;;;5065328;28;20225;-67
2022/05/10 05:29:58;;;;;;;7.93;7.13;;;;;;;;;;5064792;28;20237;-68
2022/05/10 05:32:31;;;;;;;8.23;7.43;;;;;;;;;;5066734;28;20650;-69
2022/05/10 05:35:01;;;;;;;10.13;7.60;;;;;;;;;;5065992;28;20199;-69
2022/05/10 05:37:35;;;;;;;8.93;6.87;;;;;;;;;;5064475;28;20203;-69
2022/05/10 05:40:05;;;;;;;10.07;7.03;;;;;;;;;;5063133;28;20203;-69
2022/05/10 05:42:33;;;;;;;9.63;7.43;;;;;;;;;;5075931;28;20259;-68
2022/05/10 05:45:01;;;;;;;8.70;7.40;;;;;;;;;;5061015;28;20305;-69
2022/05/10 05:47:29;;;;;;;11.90;7.43;;;;;;;;;;5070509;28;20214;-69
2022/05/10 05:49:58;;;;;;;10.23;7.83;;;;;;;;;;5060030;28;20238;-69
2022/05/10 05:52:27;;;;;;;9.17;7.37;;;;;;;;;;5061857;28;20211;-69
2022/05/10 05:54:55;;;;;;;11.10;7.63;;;;;;;;;;5064630;28;20202;-69
2022/05/10 05:57:23;;;;;;;10.67;8.50;;;;;;;;;;5068432;28;20321;-70
2022/05/10 05:59:53;;;;;;;12.47;8.33;;;;;;;;;;5067495;28;20242;-69
2022/05/10 06:02:22;;;;;;;11.10;8.37;;;;;;;;;;5065389;28;20230;-69
2022/05/10 06:04:51;;;;;;;10.17;8.00;;;;;;;;;;5067768;28;20226;-69
2022/05/10 06:07:19;;;;;;;11.47;8.33;;;;;;;;;;5066416;28;20244;-68
2022/05/10 06:09:49;;;;;;;10.13;8.17;;;;;;;;;;5059745;28;20217;-69
2022/05/10 06:12:18;;;;;;;13.57;9.33;;;;;;;;;;5069442;28;20195;-68
2022/05/10 06:14:47;;;;;;;12.90;9.40;;;;;;;;;;5065201;28;20229;-68
2022/05/10 06:17:16;;;;;;;8.87;7.97;;;;;;;;;;5070269;28;20257;-69
2022/05/10 06:19:44;;;;;;;11.30;8.33;;;;;;;;;;5067765;28;20206;-69
2022/05/10 06:22:12;;;;;;;11.43;8.07;;;;;;;;;;5066561;28;20242;-69
2022/05/10 06:24:41;;;;;;;8.47;7.67;;;;;;;;;;5060986;28;20233;-69
2022/05/10 06:27:13;;;;;;;9.27;7.97;;;;;;;;;;5063738;28;20341;-69
2022/05/10 06:29:41;;;;;;;11.57;7.93;;;;;;;;;;5059953;28;20234;-68
2022/05/10 06:32:11;;;;;;;10.23;8.23;;;;;;;;;;5064558;28;20202;-69
2022/05/10 06:34:40;;;;;;;9.83;7.80;;;;;;;;;;5067783;28;20230;-69
2022/05/10 06:38:16;;;;;;;13.10;8.00;;;;;;;;;;5072698;28;20258;-68
2022/05/10 06:40:07;;;;;;;13.97;8.03;;;;;;;;;;5070433;28;20209;-67
2022/05/10 06:42:37;;;;;;;13.43;9.63;;;;;;;;;;5067344;28;20222;-68
2022/05/10 06:45:08;;;;;;;11.30;8.50;;;;;;;;;;5067241;28;20309;-66
2022/05/10 06:47:37;;;;;;;12.50;7.20;;;;;;;;;;5068929;28;20291;-68
2022/05/10 06:50:06;;;;;;;11.77;7.73;;;;;;;;;;5068475;28;20229;-68
2022/05/10 06:52:35;;;;;;;10.40;8.03;;;;;;;;;;5065940;28;20230;-69
2022/05/10 06:55:04;;;;;;;9.57;7.80;;;;;;;;;;5069385;28;20199;-67
2022/05/10 06:57:32;;;;;;;11.10;8.07;;;;;;;;;;5070421;28;20215;-68
2022/05/10 07:00:02;;;;;;;7.40;6.70;;;;;;;;;;5068532;28;20207;-68
2022/05/10 07:02:30;;;;;;;8.33;6.97;;;;;;;;;;5066997;28;20649;-68
2022/05/10 07:04:58;;;;;;;11.20;7.47;;;;;;;;;;5065878;28;20274;-69
2022/05/10 07:07:27;;;;;;;8.40;7.60;;;;;;;;;;5068340;28;20272;-67
2022/05/10 07:09:55;;;;;;;9.33;6.97;;;;;;;;;;5063935;28;20266;-69
2022/05/10 07:12:23;;;;;;;11.67;7.40;;;;;;;;;;5069753;28;20199;-69
2022/05/10 07:14:51;;;;;;;8.60;7.17;;;;;;;;;;5061691;28;20733;-69
2022/05/10 07:17:21;;;;;;;7.77;6.57;;;;;;;;;;5065180;28;20657;-67
2022/05/10 07:19:49;;;;;;;11.40;7.13;;;;;;;;;;5070775;28;20230;-69
2022/05/10 07:22:17;;;;;;;7.17;6.10;;;;;;;;;;5072950;28;20285;-69
2022/05/10 07:24:45;;;;;;;10.97;7.83;;;;;;;;;;5062737;28;20313;-70
2022/05/10 07:27:13;;;;;;;11.63;7.23;;;;;;;;;;5061032;28;20223;-67
2022/05/10 07:29:42;;;;;;;13.00;8.13;;;;;;;;;;5061576;28;20253;-69
2022/05/10 07:32:12;;;;;;;11.73;7.83;;;;;;;;;;5062676;28;20286;-69
2022/05/10 07:34:41;;;;;;;8.73;7.67;;;;;;;;;;5065925;28;20227;-69
2022/05/10 07:37:10;;;;;;;10.33;7.73;;;;;;;;;;5063443;28;20682;-69
2022/05/10 07:39:38;;;;;;;9.97;7.13;;;;;;;;;;5062063;28;20650;-69
2022/05/10 07:42:06;;;;;;;14.90;7.60;;;;;;;;;;5073450;28;20225;-69
2022/05/10 07:44:40;;;;;;;8.97;6.70;;;;;;;;;;5064664;28;20217;-69
2022/05/10 07:47:10;;;;;;;10.17;6.80;;;;;;;;;;5061465;28;20281;-69
2022/05/10 07:49:38;;;;;;;8.90;6.57;;;;;;;;;;5071453;28;20198;-67
2022/05/10 07:52:14;;;;;;;8.80;7.13;;;;;;;;;;5061624;28;20788;-69
2022/05/10 07:54:42;;;;;;;10.43;6.30;;;;;;;;;;5070869;28;20227;-69
2022/05/10 07:57:10;;;;;;;8.43;5.93;;;;;;;;;;5060000;28;20259;-67
2022/05/10 07:59:38;;;;;;;6.73;6.10;;;;;;;;;;5071700;28;20282;-68
2022/05/10 08:02:07;;;;;;;9.07;6.90;;;;;;;;;;5068947;28;20234;-64
2022/05/10 08:04:36;;;;;;;12.03;6.03;;;;;;;;;;5065306;28;20816;-69
2022/05/10 08:07:04;;;;;;;7.07;6.37;;;;;;;;;;5066532;28;20271;-69
2022/05/10 08:09:33;;;;;;;7.27;6.00;;;;;;;;;;5067018;28;20227;-68
2022/05/10 08:12:01;;;;;;;9.60;5.57;;;;;;;;;;5068142;28;20724;-68
2022/05/10 08:14:29;;;;;;;8.00;6.40;;;;;;;;;;5075389;28;20292;-67
2022/05/10 08:16:57;;;;;;;9.40;5.87;;;;;;;;;;5061886;28;20229;-68
2022/05/10 08:19:25;;;;;;;12.80;6.03;;;;;;;;;;5057791;28;20214;-68
2022/05/10 08:21:56;;;;;;;8.97;6.37;;;;;;;;;;5072532;28;20606;-70
2022/05/10 08:24:24;;;;;;;12.10;6.80;;;;;;;;;;5073197;28;20202;-70
2022/05/10 08:26:54;;;;;;;16.33;7.37;;;;;;;;;;5065343;28;20222;-70
2022/05/10 08:29:22;;;;;;;10.83;7.50;;;;;;;;;;5062307;28;20235;-68
2022/05/10 08:31:50;;;;;;;11.73;7.17;;;;;;;;;;5057243;28;20210;-70
2022/05/10 08:34:21;;;;;;;10.67;6.83;;;;;;;;;;5064972;28;20723;-68
2022/05/10 08:36:53;;;;;;;10.43;6.87;;;;;;;;;;5068310;28;20227;-68
2022/05/10 08:39:22;;;;;;;11.17;6.80;;;;;;;;;;5065770;28;20230;-69
2022/05/10 08:41:52;;;;;;;8.73;6.33;;;;;;;;;;5069027;28;20226;-69
2022/05/10 08:44:24;;;;;;;7.10;5.67;;;;;;;;;;5068772;28;20214;-68
2022/05/10 08:46:53;;;;;;;6.90;6.17;;;;;;;;;;5068242;28;20275;-70
2022/05/10 08:49:27;;;;;;;6.53;5.83;;;;;;;;;;5066238;28;20200;-69
2022/05/10 08:51:55;;;;;;;10.83;6.33;;;;;;;;;;5068856;28;20574;-68
2022/05/10 08:54:24;;;;;;;6.27;5.63;;;;;;;;;;5062034;28;21000;-67
2022/05/10 08:56:54;;;;;;;8.33;5.73;;;;;;;;;;5065521;28;20632;-68
2022/05/10 08:59:29;;;;;;;9.20;5.60;;;;;;;;;;5063069;28;20207;-69
2022/05/10 09:01:59;;;;;;;9.43;6.40;;;;;;;;;;5064737;28;20210;-69
2022/05/10 09:04:41;;;;;;;9.50;6.37;;;;;;;;;;5022304;28;20205;-69
2022/05/10 09:07:13;;;;;;;6.47;5.77;;;;;;;;;;5027138;28;20220;-69
2022/05/10 09:09:49;;;;;;;6.47;5.87;;;;;;;;;;5022457;28;20250;-68
2022/05/10 09:12:20;;;;;;;10.27;5.30;;;;;;;;;;5021434;28;20201;-69
2022/05/10 09:14:51;;;;;;;7.17;5.03;;;;;;;;;;5022161;28;20200;-69
2022/05/10 09:17:20;;;;;;;8.13;5.97;;;;;;;;;;5027201;28;20215;-70
2022/05/10 09:19:48;;;;;;;6.27;5.40;;;;;;;;;;5021900;28;20203;-70
2022/05/10 09:22:42;;;;;;;6.40;5.80;;;;;;;;;;5024124;28;20659;-69
2022/05/10 09:25:18;;;;;;;6.77;5.00;;;;;;;;;;5025652;28;20229;-68
2022/05/10 09:27:46;;;;;;;6.00;5.40;;;;;;;;;;5025097;28;20201;-67
2022/05/10 09:30:26;;;;;;;5.07;4.57;;;;;;;;;;5024740;28;20210;-67
2022/05/10 09:36:00;;;;;;;7.10;5.10;;;;;;;;;;5021923;28;20257;-68
2022/05/10 09:38:28;;;;;;;7.33;5.13;;;;;;;;;;5027042;28;20661;-70
2022/05/10 09:40:56;;;;;;;5.67;5.17;;;;;;;;;;5021387;28;20639;-70
2022/05/10 09:43:25;;;;;;;7.03;5.37;;;;;;;;;;5029677;28;20257;-69
2022/05/10 09:46:14;;;;;;;5.40;4.90;;;;;;;;;;5020874;28;20255;-69
2022/05/10 09:48:44;;;;;;;6.27;4.77;;;;;;;;;;5024362;28;20199;-69
2022/05/10 09:51:24;;;;;;;6.73;5.30;;;;;;;;;;5023553;28;20198;-70
2022/05/10 09:53:53;;;;;;;5.60;5.10;;;;;;;;;;5024025;28;20570;-67
2022/05/10 09:56:28;;;;;;;5.47;4.50;;;;;;;;;;5032644;28;20246;-69
2022/05/10 09:58:57;;;;;;;5.87;4.90;;;;;;;;;;5028569;28;20203;-69
2022/05/10 10:01:37;;;;;;;5.63;4.87;;;;;;;;;;5030177;28;20204;-68
2022/05/10 10:04:15;;;;;;;8.90;5.07;;;;;;;;;;5065570;28;20268;-69
2022/05/10 10:06:43;;;;;;;5.20;4.80;;;;;;;;;;5072387;28;20774;-71
2022/05/10 10:09:28;;;;;;;9.23;4.93;;;;;;;;;;5069153;28;20240;-66
2022/05/10 10:11:57;;;;;;;5.87;3.97;;;;;;;;;;5070691;28;20204;-70
2022/05/10 10:14:39;;;;;;;4.00;3.70;;;;;;;;;;5072103;28;20207;-69
2022/05/10 10:17:16;;;;;;;4.90;4.30;;;;;;;;;;5073724;28;20222;-71
2022/05/10 10:19:49;;;;;;;4.63;3.83;;;;;;;;;;5070606;28;20313;-72
2022/05/10 10:22:20;;;;;;;4.47;4.07;;;;;;;;;;5071595;28;20207;-71
2022/05/10 10:24:50;;;;;;;4.40;4.00;;;;;;;;;;5069941;28;20235;-71
2022/05/10 10:27:22;;;;;;;4.73;4.30;;;;;;;;;;5067004;28;20311;-72
2022/05/10 10:29:52;;;;;;;5.53;4.50;;;;;;;;;;5072743;28;20244;-71
2022/05/10 10:32:23;;;;;;;5.10;4.63;;;;;;;;;;5068097;28;20292;-73
2022/05/10 10:34:55;;;;;;;4.40;4.07;;;;;;;;;;5066872;28;20202;-72
2022/05/10 10:37:26;;;;;;;5.13;3.97;;;;;;;;;;5074161;28;20229;-70
2022/05/10 10:40:00;;;;;;;9.10;5.67;;;;;;;;;;5069271;28;20250;-72
2022/05/10 10:42:31;;;;;;;8.63;4.80;;;;;;;;;;5067773;28;20229;-72
2022/05/10 10:45:00;;;;;;;4.27;3.87;;;;;;;;;;5071158;28;20253;-71
2022/05/10 10:47:38;;;;;;;5.83;4.50;;;;;;;;;;5066956;28;20219;-71
2022/05/10 10:50:14;;;;;;;4.50;4.10;;;;;;;;;;5069707;28;20257;-72
2022/05/10 10:52:49;;;;;;;4.73;4.33;;;;;;;;;;5069830;28;20576;-73
2022/05/10 10:55:19;;;;;;;5.77;4.20;;;;;;;;;;5069110;28;20233;-70
2022/05/10 10:57:51;;;;;;;4.73;4.23;;;;;;;;;;5067796;28;20222;-71
2022/05/10 11:00:20;;;;;;;4.20;3.90;;;;;;;;;;5069873;28;20696;-71
2022/05/10 11:03:12;;;;;;;7.30;3.77;;;;;;;;;;5068555;28;20660;-72
2022/05/10 11:05:55;;;;;;;5.90;4.67;;;;;;;;;;5068575;28;21808;-72
2022/05/10 11:08:29;;;;;;;4.53;4.13;;;;;;;;;;5062532;28;20245;-72
2022/05/10 11:11:01;;;;;;;6.33;5.03;;;;;;;;;;5068067;28;20199;-70
2022/05/10 11:13:40;;;;;;;5.10;4.67;;;;;;;;;;5068360;28;20226;-71
2022/05/10 11:16:13;;;;;;;6.37;4.17;;;;;;;;;;5066673;28;20283;-71
2022/05/10 11:18:48;;;;;;;4.73;4.40;;;;;;;;;;5067329;28;20285;-70
2022/05/10 11:21:24;;;;;;;4.63;4.13;;;;;;;;;;5067848;28;20625;-70
2022/05/10 11:23:59;;;;;;;4.97;4.57;;;;;;;;;;5065337;28;20216;-71
2022/05/10 11:26:46;;;;;;;4.40;4.00;;;;;;;;;;5066649;28;20266;-72
2022/05/10 11:29:22;;;;;;;5.43;4.70;;;;;;;;;;5066891;28;20248;-70
2022/05/10 11:31:58;;;;;;;5.20;4.60;;;;;;;;;;5065822;28;20287;-71
2022/05/10 11:34:36;;;;;;;5.23;4.73;;;;;;;;;;5066410;28;20204;-71
2022/05/10 11:37:06;;;;;;;3.97;3.57;;;;;;;;;;5066844;28;20224;-71
2022/05/10 11:39:47;;;;;;;5.13;4.60;;;;;;;;;;5067521;28;20690;-72
2022/05/10 11:42:24;;;;;;;5.47;4.00;;;;;;;;;;5067667;28;20246;-70
2022/05/10 11:45:17;;;;;;;4.13;3.73;;;;;;;;;;5066505;28;20685;-70
2022/05/10 11:48:13;;;;;;;5.60;4.33;;;;;;;;;;5070352;28;20706;-72
2022/05/10 11:54:01;;;;;;;7.23;5.00;;;;;;;;;;5031331;28;20213;-74
2022/05/10 11:56:34;;;;;;;4.33;3.93;;;;;;;;;;5067350;28;20256;-72
2022/05/10 11:59:03;;;;;;;6.37;4.30;;;;;;;;;;5069014;28;20242;-72
2022/05/10 12:01:41;;;;;;;3.70;3.40;;;;;;;;;;5068957;28;20220;-74
2022/05/10 12:04:33;;;;;;;4.50;3.90;;;;;;;;;;5068451;28;20233;-75
2022/05/10 12:07:20;;;;;;;3.90;3.60;;;;;;;;;;5058007;28;20667;-75
2022/05/10 12:09:59;;;;;;;4.00;3.60;;;;;;;;;;5057395;28;20216;-74
2022/05/10 12:12:57;;;;;;;4.03;3.63;;;;;;;;;;5066539;28;20210;-75
2022/05/10 12:21:22;;;;;;;3.83;3.50;;;;;;;;;;5063363;28;20566;-75
2022/05/10 12:24:06;;;;;;;3.97;3.67;;;;;;;;;;5074082;28;20228;-74
2022/05/10 12:26:40;;;;;;;6.07;3.63;;;;;;;;;;5064688;28;20219;-74
2022/05/10 12:29:28;;;;;;;3.53;3.20;;;;;;;;;;5062001;28;20225;-74
2022/05/10 12:32:01;;;;;;;3.67;3.47;;;;;;;;;;5067771;28;20268;-74
2022/05/10 12:34:40;;;;;;;4.53;3.77;;;;;;;;;;5067171;28;20285;-73
2022/05/10 12:37:36;;;;;;;4.67;3.80;;;;;;;;;;5062044;28;20707;-74
2022/05/10 12:40:06;;;;;;;3.50;3.20;;;;;;;;;;5037908;28;20202;-76
2022/05/10 12:42:37;;;;;;;4.83;4.27;;;;;;;;;;5065628;28;20210;-74
2022/05/10 12:45:16;;;;;;;4.40;4.00;;;;;;;;;;5060801;28;20194;-74
2022/05/10 12:47:50;;;;;;;3.97;3.57;;;;;;;;;;5063760;28;20640;-74
2022/05/10 12:50:25;;;;;;;3.87;3.10;;;;;;;;;;5070294;28;20200;-77
2022/05/10 12:52:53;;;;;;;4.50;3.90;;;;;;;;;;5066470;28;20229;-76
2022/05/10 12:55:22;;;;;;;3.43;3.23;;;;;;;;;;5065630;28;20218;-76
2022/05/10 12:57:54;;;;;;;3.57;3.33;;;;;;;;;;5058272;28;20195;-72
2022/05/10 13:00:23;;;;;;;3.70;3.23;;;;;;;;;;5063986;28;20230;-74
2022/05/10 13:03:12;;;;;;;5.10;4.60;;;;;;;;;;5061291;28;20243;-75
2022/05/10 13:05:51;;;;;;;4.60;4.20;;;;;;;;;;5033905;28;20684;-73
2022/05/10 13:08:29;;;;;;;3.50;3.20;;;;;;;;;;5036021;28;20230;-75
2022/05/10 13:11:18;;;;;;;9.40;3.70;;;;;;;;;;5027663;28;20216;-75
2022/05/10 13:13:46;;;;;;;4.07;3.70;;;;;;;;;;5035383;28;20750;-75
2022/05/10 13:16:17;;;;;;;3.87;3.40;;;;;;;;;;5031160;28;20663;-75
2022/05/10 13:18:47;;;;;;;4.13;3.50;;;;;;;;;;5028325;28;20209;-74
2022/05/10 13:21:22;;;;;;;3.50;3.17;;;;;;;;;;5035391;28;20233;-74
2022/05/10 13:23:50;;;;;;;4.37;3.77;;;;;;;;;;5035537;28;20205;-76
2022/05/10 13:26:18;;;;;;;8.67;3.37;;;;;;;;;;5035147;28;20223;-75
2022/05/10 13:28:50;;;;;;;4.30;3.40;;;;;;;;;;5039164;28;20564;-74
2022/05/10 13:31:20;;;;;;;3.20;2.90;;;;;;;;;;5039037;28;20206;-74
2022/05/10 13:34:08;;;;;;;3.70;2.90;;;;;;;;;;5038946;28;20208;-74
2022/05/10 13:36:37;;;;;;;3.20;2.90;;;;;;;;;;5041057;28;20346;-75
2022/05/10 13:39:07;;;;;;;3.43;3.13;;;;;;;;;;5039499;28;20200;-74
2022/05/10 13:41:36;;;;;;;3.23;2.97;;;;;;;;;;5039686;28;20238;-74
2022/05/10 13:44:07;;;;;;;3.30;3.00;;;;;;;;;;5036346;28;20204;-74
2022/05/10 13:46:40;;;;;;;3.23;3.00;;;;;;;;;;5035265;28;20695;-75
2022/05/10 13:49:13;;;;;;;3.03;2.83;;;;;;;;;;5032009;28;20255;-75
2022/05/10 13:51:45;;;;;;;4.47;3.50;;;;;;;;;;5038728;28;20283;-73
2022/05/10 13:54:21;;;;;;;4.00;3.20;;;;;;;;;;5031460;28;20274;-73
2022/05/10 13:56:49;;;;;;;3.80;3.40;;;;;;;;;;5034191;28;20266;-73
2022/05/10 13:59:28;;;;;;;4.10;3.60;;;;;;;;;;5039328;28;20275;-75
2022/05/10 14:01:56;;;;;;;3.60;3.30;;;;;;;;;;5038426;28;20204;-70
2022/05/10 14:04:26;;;;;;;3.20;2.93;;;;;;;;;;5052763;28;20243;-74
2022/05/10 14:06:57;;;;;;;6.13;3.60;;;;;;;;;;5069178;28;20650;-73
2022/05/10 14:09:27;;;;;;;6.00;3.53;;;;;;;;;;5068208;28;20251;-75
2022/05/10 14:11:56;;;;;;;3.93;3.63;;;;;;;;;;5068851;28;20197;-75
2022/05/10 14:14:25;;;;;;;6.43;2.80;;;;;;;;;;5070687;28;20647;-75
2022/05/10 14:16:55;;;;;;;4.33;3.60;;;;;;;;;;5065529;28;20219;-75
2022/05/10 14:19:28;;;;;;;4.97;3.90;;;;;;;;;;5071463;28;20229;-73
2022/05/10 14:21:59;;;;;;;3.73;3.43;;;;;;;;;;5075135;28;20223;-75
2022/05/10 14:24:27;;;;;;;5.13;3.33;;;;;;;;;;5072431;28;20233;-72
2022/05/10 14:27:05;;;;;;;4.33;3.40;;;;;;;;;;5072887;28;20253;-76
2022/05/10 14:29:35;;;;;;;6.00;3.17;;;;;;;;;;5077709;28;20257;-76
2022/05/10 14:32:04;;;;;;;3.63;3.30;;;;;;;;;;5064336;28;20233;-77
2022/05/10 14:34:53;;;;;;;5.50;3.73;;;;;;;;;;5069454;28;21169;-76
2022/05/10 14:37:28;;;;;;;5.70;4.77;;;;;;;;;;5065997;28;20717;-76
2022/05/10 14:39:57;;;;;;;3.40;3.10;;;;;;;;;;5074876;28;20203;-77
2022/05/10 14:42:27;;;;;;;7.27;3.80;;;;;;;;;;5064371;28;20632;-76
2022/05/10 14:45:10;;;;;;;4.07;3.70;;;;;;;;;;5071039;28;20208;-77
2022/05/10 14:47:38;;;;;;;4.13;3.20;;;;;;;;;;5069999;28;20689;-77
2022/05/10 14:50:09;;;;;;;4.17;3.80;;;;;;;;;;5072263;28;20246;-77
2022/05/10 14:52:39;;;;;;;3.30;3.10;;;;;;;;;;5066703;28;20280;-77
2022/05/10 14:55:07;;;;;;;4.70;3.90;;;;;;;;;;5063490;28;20211;-76
2022/05/10 14:57:37;;;;;;;6.37;3.33;;;;;;;;;;5074060;28;20207;-77
2022/05/10 15:00:24;;;;;;;3.00;2.80;;;;;;;;;;5062772;28;20695;-75
2022/05/10 15:03:04;;;;;;;4.33;3.67;;;;;;;;;;5069051;28;20200;-78
2022/05/10 15:05:32;;;;;;;3.80;3.47;;;;;;;;;;5019409;28;20758;-76
2022/05/10 15:08:02;;;;;;;3.13;2.80;;;;;;;;;;5026392;28;20240;-77
2022/05/10 15:10:30;;;;;;;3.37;3.07;;;;;;;;;;5034923;28;20207;-76
2022/05/10 15:13:05;;;;;;;3.50;3.17;;;;;;;;;;5033381;28;20204;-77
2022/05/10 15:15:34;;;;;;;4.40;3.33;;;;;;;;;;5033276;28;20288;-77
2022/05/10 15:20:48;;;;;;;4.23;3.07;;;;;;;;;;5033653;28;20237;-75
2022/05/10 15:23:20;;;;;;;5.57;3.33;;;;;;;;;;5034732;28;20636;-76
2022/05/10 15:25:48;;;;;;;3.53;2.87;;;;;;;;;;5035839;28;20223;-75